createdAt,value
2023-01-22T00:00:22.441Z,19.2
2023-01-22T00:05:18.268Z,19.2
2023-01-22T00:10:18.538Z,19.2
2023-01-22T00:15:18.312Z,19.2
2023-01-22T00:20:16.601Z,19.2
2023-01-22T00:25:18.431Z,19.1
2023-01-22T00:30:16.633Z,19.1
2023-01-22T00:35:18.160Z,19.1
2023-01-22T00:40:24.078Z,19.1
2023-01-22T00:45:21.915Z,19
2023-01-22T00:50:17.958Z,19
2023-01-22T00:55:15.695Z,19
2023-01-22T01:00:14.537Z,19
2023-01-22T01:05:20.453Z,19
2023-01-22T01:10:30.249Z,18.9
2023-01-22T01:15:16.769Z,18.9
2023-01-22T01:20:13.836Z,18.9
2023-01-22T01:25:15.673Z,18.9
2023-01-22T01:30:20.671Z,18.9
2023-01-22T01:35:15.535Z,18.9
2023-01-22T01:40:24.323Z,18.9
2023-01-22T01:45:18.083Z,18.9
2023-01-22T01:50:21.873Z,18.9
2023-01-22T01:55:15.665Z,18.9
2023-01-22T02:00:20.713Z,18.9
2023-01-22T02:05:24.769Z,18.8
2023-01-22T02:10:19.730Z,18.8
2023-01-22T02:15:16.177Z,18.8
2023-01-22T02:20:24.071Z,18.8
2023-01-22T02:25:15.833Z,18.8
2023-01-22T02:30:18.275Z,18.8
2023-01-22T02:35:21.886Z,18.8
2023-01-22T02:40:23.682Z,18.8
2023-01-22T02:45:16.671Z,18.7
2023-01-22T02:50:14.401Z,18.7
2023-01-22T02:55:16.224Z,18.7
2023-01-22T03:00:18.460Z,18.7
2023-01-22T03:05:20.053Z,18.7
2023-01-22T03:10:16.068Z,18.7
2023-01-22T03:15:23.781Z,18.6
2023-01-22T03:20:15.945Z,18.6
2023-01-22T03:25:14.206Z,18.6
2023-01-22T03:30:20.378Z,18.6
2023-01-22T03:35:14.340Z,18.6
2023-01-22T03:40:22.377Z,18.6
2023-01-22T03:45:26.265Z,18.6
2023-01-22T03:50:22.112Z,18.6
2023-01-22T03:55:16.085Z,18.6
2023-01-22T04:00:23.927Z,18.6
2023-01-22T04:05:17.863Z,18.6
2023-01-22T04:10:15.895Z,18.6
2023-01-22T04:15:16.197Z,18.5
2023-01-22T04:20:20.159Z,18.5
2023-01-22T04:25:16.464Z,18.5
2023-01-22T04:30:15.692Z,18.5
2023-01-22T04:35:16.168Z,18.5
2023-01-22T04:40:16.376Z,18.5
2023-01-22T04:45:26.247Z,18.5
2023-01-22T04:50:30.151Z,18.5
2023-01-22T04:55:22.355Z,18.5
2023-01-22T05:00:16.380Z,18.5
2023-01-22T05:05:18.231Z,18.4
2023-01-22T05:10:16.172Z,18.4
2023-01-22T05:15:38.596Z,18.4
2023-01-22T05:20:20.954Z,18.4
2023-01-22T05:25:14.455Z,18.4
2023-01-22T05:30:15.810Z,18.4
2023-01-22T05:35:16.198Z,18.4
2023-01-22T05:40:14.069Z,18.4
2023-01-22T05:45:13.908Z,18.4
2023-01-22T05:50:13.713Z,18.4
2023-01-22T05:55:20.579Z,18.4
2023-01-22T06:00:20.631Z,18.5
2023-01-22T06:05:13.978Z,18.5
2023-01-22T06:10:18.141Z,18.5
2023-01-22T06:15:15.820Z,18.5
2023-01-22T06:20:21.730Z,18.5
2023-01-22T06:25:26.692Z,18.5
2023-01-22T06:30:26.683Z,18.5
2023-01-22T06:35:16.647Z,18.5
2023-01-22T06:40:16.800Z,18.5
2023-01-22T06:45:14.674Z,18.5
2023-01-22T06:50:17.144Z,18.5
2023-01-22T06:55:17.852Z,18.5
2023-01-22T07:00:20.187Z,18.5
2023-01-22T07:05:20.435Z,18.5
2023-01-22T07:10:18.849Z,18.5
2023-01-22T07:15:18.623Z,18.5
2023-01-22T07:20:20.627Z,18.5
2023-01-22T07:25:18.624Z,18.5
2023-01-22T07:30:16.629Z,18.5
2023-01-22T07:35:18.260Z,18.5
2023-01-22T07:40:18.408Z,18.5
2023-01-22T07:45:21.967Z,18.5
2023-01-22T07:50:13.778Z,18.4
2023-01-22T07:55:25.691Z,18.5
2023-01-22T08:00:22.580Z,18.5
2023-01-22T08:05:20.415Z,18.6
2023-01-22T08:10:14.319Z,18.6
2023-01-22T08:15:16.214Z,18.6
2023-01-22T08:20:14.170Z,18.6
2023-01-22T08:25:20.122Z,18.7
2023-01-22T08:30:16.081Z,18.7
2023-01-22T08:35:20.539Z,18.8
2023-01-22T08:40:22.696Z,18.7
2023-01-22T08:45:16.644Z,18.7
2023-01-22T08:50:14.545Z,18.7
2023-01-22T08:55:14.421Z,18.7
2023-01-22T09:00:30.513Z,18.7
2023-01-22T09:05:18.548Z,18.8
2023-01-22T09:10:14.238Z,18.8
2023-01-22T09:15:14.174Z,18.8
2023-01-22T09:20:16.516Z,18.8
2023-01-22T09:25:16.568Z,18.8
2023-01-22T09:30:20.803Z,18.8
2023-01-22T09:35:18.412Z,18.8
2023-01-22T09:40:22.434Z,18.7
2023-01-22T09:45:14.406Z,18.7
2023-01-22T09:50:22.692Z,18.7
2023-01-22T09:55:16.607Z,18.7
2023-01-22T10:00:16.799Z,18.7
2023-01-22T10:05:17.937Z,18.7
2023-01-22T10:10:23.746Z,18.7
2023-01-22T10:15:15.904Z,18.7
2023-01-22T10:20:18.140Z,18.6
2023-01-22T10:25:17.709Z,18.6
2023-01-22T10:30:14.698Z,18.6
2023-01-22T10:35:20.529Z,18.6
2023-01-22T10:40:18.536Z,18.6
2023-01-22T10:45:18.061Z,18.6
2023-01-22T10:50:22.460Z,18.6
2023-01-22T10:55:16.120Z,18.6
2023-01-22T11:00:14.106Z,18.6
2023-01-22T11:05:15.652Z,18.6
2023-01-22T11:10:22.809Z,18.6
2023-01-22T11:15:21.193Z,18.5
2023-01-22T11:20:14.631Z,18.5
2023-01-22T11:25:16.632Z,18.5
2023-01-22T11:30:17.469Z,18.5
2023-01-22T11:35:16.168Z,18.5
2023-01-22T11:40:20.530Z,18.5
2023-01-22T11:45:18.514Z,18.5
2023-01-22T11:50:16.449Z,18.5
2023-01-22T11:55:20.232Z,18.5
2023-01-22T12:00:14.369Z,18.5
2023-01-22T12:05:13.853Z,18.5
2023-01-22T12:10:15.706Z,18.5
2023-01-22T12:15:20.106Z,18.5
2023-01-22T12:20:16.071Z,18.4
2023-01-22T12:25:21.938Z,18.4
2023-01-22T12:30:18.100Z,18.4
2023-01-22T12:35:16.436Z,18.4
2023-01-22T12:40:14.327Z,18.4
2023-01-22T12:45:14.429Z,18.4
2023-01-22T12:50:20.858Z,18.4
2023-01-22T12:55:16.386Z,18.4
2023-01-22T13:00:16.570Z,18.4
2023-01-22T13:05:14.284Z,18.4
2023-01-22T13:10:18.421Z,18.4
2023-01-22T13:15:14.405Z,18.4
2023-01-22T13:20:16.453Z,18.4
2023-01-22T13:25:20.218Z,18.4
2023-01-22T13:30:16.360Z,18.4
2023-01-22T13:35:14.550Z,18.4
2023-01-22T13:40:20.795Z,18.4
2023-01-22T13:45:22.142Z,18.4
2023-01-22T13:50:16.122Z,18.4
2023-01-22T13:55:24.808Z,18.4
2023-01-22T14:00:15.933Z,18.4
2023-01-22T14:05:18.188Z,18.4
2023-01-22T14:10:18.361Z,18.4
2023-01-22T14:15:18.004Z,18.4
2023-01-22T14:20:15.871Z,18.3
2023-01-22T14:25:16.036Z,18.3
2023-01-22T14:30:20.205Z,18.3
2023-01-22T14:35:18.055Z,18.3
2023-01-22T14:40:18.254Z,18.3
2023-01-22T14:45:16.663Z,18.3
2023-01-22T14:50:15.526Z,18.3
2023-01-22T14:55:20.417Z,18.3
2023-01-22T15:00:24.463Z,18.3
2023-01-22T15:05:17.932Z,18.3
2023-01-22T15:10:15.969Z,18.3
2023-01-22T15:15:14.341Z,18.3
2023-01-22T15:20:20.309Z,18.3
2023-01-22T15:25:15.987Z,18.2
2023-01-22T15:30:15.918Z,18.2
2023-01-22T15:35:13.889Z,18.2
2023-01-22T15:40:15.793Z,18.2
2023-01-22T15:45:15.765Z,18.3
2023-01-22T15:55:20.448Z,18.3
2023-01-22T16:00:26.675Z,18.3
2023-01-22T16:05:20.251Z,18.3
2023-01-22T16:10:14.473Z,18.3
2023-01-22T16:15:14.512Z,18.3
2023-01-22T16:20:17.496Z,18.3
2023-01-22T16:25:18.129Z,18.3
2023-01-22T16:30:18.402Z,18.3
2023-01-22T16:35:21.955Z,18.3
2023-01-22T16:40:18.108Z,18.3
2023-01-22T16:45:14.514Z,18.3
2023-01-22T16:50:16.519Z,18.3
2023-01-22T16:55:17.845Z,18.2
2023-01-22T17:00:16.112Z,18.2
2023-01-22T17:05:23.845Z,18.2
2023-01-22T17:10:18.216Z,18.2
2023-01-22T17:15:19.858Z,18.2
2023-01-22T17:20:13.766Z,18.2
2023-01-22T17:25:13.611Z,18.2
2023-01-22T17:30:16.771Z,18.2
2023-01-22T17:35:26.288Z,18.2
2023-01-22T17:40:20.059Z,18.2
2023-01-22T17:45:15.899Z,18.2
2023-01-22T17:50:18.054Z,18.2
2023-01-22T17:55:18.245Z,18.2
2023-01-22T18:00:20.105Z,18.2
2023-01-22T18:05:16.568Z,18.2
2023-01-22T18:10:14.607Z,18.2
2023-01-22T18:15:16.511Z,18.2
2023-01-22T18:20:14.222Z,18.1
2023-01-22T18:25:14.011Z,18.1
2023-01-22T18:30:14.955Z,18.1
2023-01-22T18:35:16.015Z,18.1
2023-01-22T18:40:16.085Z,18.1
2023-01-22T18:45:15.957Z,18.1
2023-01-22T18:50:17.749Z,18.1
2023-01-22T18:55:18.230Z,18.1
2023-01-22T19:00:18.061Z,18.1
2023-01-22T19:05:15.719Z,18.1
2023-01-22T19:10:13.677Z,18.2
2023-01-22T19:15:14.720Z,18.2
2023-01-22T19:20:21.479Z,18.2
2023-01-22T19:25:16.480Z,18.2
2023-01-22T19:30:16.621Z,18.3
2023-01-22T19:35:18.654Z,18.3
2023-01-22T19:40:16.154Z,18.3
2023-01-22T19:45:18.248Z,18.3
2023-01-22T19:50:23.867Z,18.3
2023-01-22T19:55:21.759Z,18.3
2023-01-22T20:00:19.754Z,18.3
2023-01-22T20:05:14.619Z,18.3
2023-01-22T20:10:24.521Z,18.4
2023-01-22T20:15:16.705Z,18.4
2023-01-22T20:20:21.773Z,18.4
2023-01-22T20:25:15.531Z,18.4
2023-01-22T20:30:16.397Z,18.4
2023-01-22T20:35:14.329Z,18.4
2023-01-22T20:40:14.189Z,18.4
2023-01-22T20:45:14.016Z,18.4
2023-01-22T20:50:17.806Z,18.4
2023-01-22T20:55:20.788Z,18.3
2023-01-22T21:00:28.150Z,18.3
2023-01-22T21:05:20.308Z,18.3
2023-01-22T21:10:18.004Z,18.3
2023-01-22T21:15:16.597Z,18.3
2023-01-22T21:20:26.441Z,18.3
2023-01-22T21:25:16.265Z,18.3
2023-01-22T21:30:20.548Z,18.3
2023-01-22T21:35:14.287Z,18.3
2023-01-22T21:40:20.527Z,18.3
2023-01-22T21:45:16.483Z,18.3
2023-01-22T21:50:16.186Z,18.3
2023-01-22T21:55:22.404Z,18.3
2023-01-22T22:00:18.512Z,18.3
2023-01-22T22:05:18.347Z,18.2
2023-01-22T22:10:20.688Z,18.2
2023-01-22T22:15:16.377Z,18.2
2023-01-22T22:20:18.523Z,18.2
2023-01-22T22:25:22.045Z,18.2
2023-01-22T22:30:18.178Z,18.1
2023-01-22T22:35:17.873Z,18.1
2023-01-22T22:40:19.988Z,18.1
2023-01-22T22:45:15.657Z,18.1
2023-01-22T22:50:22.646Z,18
2023-01-22T22:55:20.474Z,18
2023-01-22T23:00:26.426Z,18
2023-01-22T23:05:14.378Z,18
2023-01-22T23:10:18.425Z,18
2023-01-22T23:15:15.847Z,18
2023-01-22T23:20:15.713Z,18
2023-01-22T23:25:15.633Z,18
2023-01-22T23:30:16.601Z,17.9
2023-01-22T23:35:13.673Z,17.9
2023-01-22T23:40:19.002Z,17.9
2023-01-22T23:45:16.686Z,17.9
2023-01-22T23:50:20.738Z,17.9
2023-01-22T23:55:14.327Z,17.9
